Time;durP1;ratioP1;P1;durP2;ratioP2;P2;SDS_P1;SDS_P2;PMS_P1;PMS_P2;Temp;Humidity;BMP_temperature;BMP_pressure;BME280_temperature;BME280_humidity;BME280_pressure;Samples;Min_cycle;Max_cycle;Signal;HPM_P1;HPM_P2
2021/08/24 00:01:16;;;;;;;7.80;3.40;;;12.60;80.50;;;;;;5074565;28;20251;-89
2021/08/24 00:03:42;;;;;;;3.57;3.10;;;12.60;80.60;;;;;;5057656;28;20202;-89
2021/08/24 00:06:08;;;;;;;7.83;3.27;;;12.60;80.70;;;;;;5057751;28;20180;-89
2021/08/24 00:08:35;;;;;;;4.40;3.03;;;12.50;80.80;;;;;;5057623;28;20221;-89
2021/08/24 00:11:02;;;;;;;4.17;3.00;;;12.50;80.80;;;;;;5057526;28;20183;-89
2021/08/24 00:13:28;;;;;;;3.87;2.90;;;12.50;80.90;;;;;;5057524;28;20219;-89
2021/08/24 00:15:55;;;;;;;8.17;3.00;;;12.50;81.00;;;;;;5058399;28;20229;-89
2021/08/24 00:18:21;;;;;;;5.60;3.20;;;12.40;81.10;;;;;;5057385;28;20209;-89
2021/08/24 00:20:49;;;;;;;6.90;3.27;;;12.40;81.30;;;;;;5057533;28;20179;-89
2021/08/24 00:23:17;;;;;;;4.70;3.53;;;12.40;81.30;;;;;;5057147;28;20210;-89
2021/08/24 00:25:43;;;;;;;6.10;2.80;;;12.40;81.30;;;;;;5057150;28;20213;-87
2021/08/24 00:28:09;;;;;;;3.83;3.20;;;12.30;81.20;;;;;;5057235;28;20587;-89
2021/08/24 00:30:38;;;;;;;5.00;2.67;;;12.30;81.10;;;;;;5057170;28;20179;-89
2021/08/24 00:33:04;;;;;;;8.37;3.33;;;12.30;81.10;;;;;;5075065;28;20198;-89
2021/08/24 00:35:30;;;;;;;4.77;3.03;;;12.30;81.10;;;;;;5057104;28;20237;-89
2021/08/24 00:37:55;;;;;;;6.43;2.93;;;12.30;81.10;;;;;;5074833;28;20203;-89
2021/08/24 00:40:22;;;;;;;8.87;3.20;;;12.20;81.10;;;;;;5075241;28;20216;-89
2021/08/24 00:42:49;;;;;;;4.67;3.10;;;12.20;81.10;;;;;;5057242;28;20191;-89
2021/08/24 00:45:16;;;;;;;3.80;3.03;;;12.10;81.20;;;;;;5056965;28;20176;-89
2021/08/24 00:47:45;;;;;;;9.07;3.17;;;12.10;81.30;;;;;;5056971;28;20254;-89
2021/08/24 00:50:24;;;;;;;4.70;3.57;;;12.10;81.20;;;;;;5056820;28;20167;-89
2021/08/24 00:52:50;;;;;;;6.60;3.43;;;12.00;81.50;;;;;;5056798;28;20191;-89
2021/08/24 00:55:17;;;;;;;3.83;3.20;;;12.00;82.00;;;;;;5056823;28;20168;-89
2021/08/24 00:57:46;;;;;;;8.27;3.30;;;12.00;82.40;;;;;;5056573;28;20730;-89
2021/08/24 01:00:13;;;;;;;5.17;2.77;;;12.00;82.30;;;;;;5056655;28;20252;-89
2021/08/24 01:02:38;;;;;;;5.50;3.20;;;12.10;82.10;;;;;;5056410;28;20195;-89
2021/08/24 01:05:05;;;;;;;5.50;3.23;;;12.10;82.00;;;;;;5056552;28;20225;-89
2021/08/24 01:07:50;;;;;;;4.97;3.37;;;12.00;82.10;;;;;;5074375;28;20221;-89
2021/08/24 01:10:38;;;;;;;6.00;3.43;;;12.00;82.40;;;;;;5056520;28;20167;-89
2021/08/24 01:13:32;;;;;;;13.93;3.57;;;12.00;82.40;;;;;;5056079;28;20194;-89
2021/08/24 01:16:21;;;;;;;7.80;2.77;;;12.00;82.50;;;;;;5074240;28;20160;-89
2021/08/24 01:19:07;;;;;;;6.13;3.53;;;12.00;82.50;;;;;;5063328;28;20275;-89
2021/08/24 01:22:09;;;;;;;13.37;3.43;;;11.90;82.40;;;;;;5056349;28;20639;-89
2021/08/24 01:24:42;;;;;;;4.93;3.00;;;11.90;82.50;;;;;;5056153;28;20210;-89
2021/08/24 01:27:12;;;;;;;3.47;3.17;;;11.80;82.60;;;;;;5056067;28;20174;-89
2021/08/24 01:29:50;;;;;;;4.83;3.47;;;11.80;82.50;;;;;;5056037;28;20183;-89
2021/08/24 01:32:27;;;;;;;5.90;3.23;;;11.80;82.50;;;;;;5073944;28;20194;-89
2021/08/24 01:35:21;;;;;;;4.53;3.37;;;11.70;82.60;;;;;;5073914;28;20240;-89
2021/08/24 01:38:26;;;;;;;5.40;2.90;;;11.70;82.60;;;;;;5074029;28;20549;-89
2021/08/24 01:41:18;;;;;;;8.00;2.93;;;11.70;82.50;;;;;;5073400;28;20191;-89
2021/08/24 01:43:55;;;;;;;5.63;2.90;;;11.70;82.50;;;;;;5073700;28;20214;-89
2021/08/24 01:46:34;;;;;;;9.30;3.00;;;11.70;82.50;;;;;;5073696;28;20171;-88
2021/08/24 01:49:03;;;;;;;14.37;3.80;;;11.60;82.60;;;;;;5055814;28;20174;-88
2021/08/24 01:51:38;;;;;;;6.40;4.03;;;11.60;82.50;;;;;;5073636;28;20175;-89
2021/08/24 01:54:21;;;;;;;16.60;3.30;;;11.60;82.50;;;;;;5073546;28;20285;-89
2021/08/24 01:56:49;;;;;;;6.50;3.50;;;11.60;82.60;;;;;;5073651;28;20537;-89
2021/08/24 01:59:25;;;;;;;5.13;3.20;;;11.50;82.50;;;;;;5055532;28;20290;-89
2021/08/24 02:02:06;;;;;;;5.70;3.50;;;11.50;82.50;;;;;;5055954;28;20167;-89
2021/08/24 02:04:40;;;;;;;9.87;3.50;;;11.50;82.40;;;;;;5055490;28;20187;-89
2021/08/24 02:07:09;;;;;;;3.93;2.93;;;11.50;82.40;;;;;;5055474;28;20163;-89
2021/08/24 02:09:41;;;;;;;5.43;3.60;;;11.40;82.50;;;;;;5055502;28;20187;-89
2021/08/24 02:12:08;;;;;;;4.50;3.37;;;11.40;82.40;;;;;;5055550;28;20175;-89
2021/08/24 02:14:38;;;;;;;6.13;3.90;;;11.30;82.40;;;;;;5055321;28;20221;-88
2021/08/24 02:17:05;;;;;;;3.90;3.10;;;11.30;82.40;;;;;;5055338;28;20313;-89
2021/08/24 02:19:40;;;;;;;3.93;3.37;;;11.30;82.30;;;;;;5073196;28;20724;-89
2021/08/24 02:22:35;;;;;;;6.77;3.87;;;11.20;82.30;;;;;;5073302;28;20159;-89
2021/08/24 02:25:14;;;;;;;4.00;3.33;;;11.20;82.30;;;;;;5054754;28;20264;-89
2021/08/24 02:27:50;;;;;;;4.33;3.10;;;11.20;82.30;;;;;;5055335;28;20179;-89
2021/08/24 02:30:16;;;;;;;4.47;3.10;;;11.10;82.20;;;;;;5056366;28;20253;-89
2021/08/24 02:32:47;;;;;;;5.30;3.90;;;11.10;82.30;;;;;;5055147;28;20280;-88
2021/08/24 02:35:23;;;;;;;7.10;3.50;;;11.10;82.30;;;;;;5055280;28;20262;-88
2021/08/24 02:37:53;;;;;;;5.97;4.10;;;11.00;82.30;;;;;;5073474;28;20521;-89
2021/08/24 02:40:44;;;;;;;6.17;3.57;;;11.00;82.30;;;;;;5055265;28;20180;-89
2021/08/24 02:43:17;;;;;;;7.80;3.60;;;11.00;82.20;;;;;;5055089;28;20198;-89
2021/08/24 02:46:06;;;;;;;7.70;3.83;;;11.00;82.30;;;;;;5055024;28;20170;-89
2021/08/24 02:48:35;;;;;;;6.10;3.60;;;11.00;82.40;;;;;;5047118;28;20270;-89
2021/08/24 02:51:02;;;;;;;4.27;3.83;;;11.00;82.50;;;;;;5054991;28;20257;-89
2021/08/24 02:53:28;;;;;;;6.50;4.73;;;10.90;82.50;;;;;;5072832;28;20245;-89
2021/08/24 02:55:54;;;;;;;6.67;4.37;;;10.90;82.60;;;;;;5055039;28;20186;-88
2021/08/24 02:58:19;;;;;;;4.77;3.50;;;10.90;82.60;;;;;;5054909;28;20199;-89
2021/08/24 03:00:47;;;;;;;4.90;3.47;;;10.90;82.60;;;;;;5073412;28;20159;-89
2021/08/24 03:03:14;;;;;;;7.07;4.13;;;10.80;82.70;;;;;;5054877;28;20252;-89
2021/08/24 03:05:39;;;;;;;9.10;4.73;;;10.80;82.70;;;;;;5072800;28;20171;-88
2021/08/24 03:08:05;;;;;;;9.13;4.30;;;10.80;82.90;;;;;;5054966;28;20233;-89
2021/08/24 03:10:34;;;;;;;7.40;4.87;;;10.80;84.40;;;;;;5054813;28;20651;-88
2021/08/24 03:13:16;;;;;;;9.73;4.97;;;10.80;85.40;;;;;;5054845;28;20282;-88
2021/08/24 03:16:23;;;;;;;11.47;5.00;;;10.80;86.50;;;;;;5054835;28;20628;-88
2021/08/24 03:18:55;;;;;;;7.37;5.23;;;10.80;87.20;;;;;;5038098;28;20729;-88
2021/08/24 03:21:26;;;;;;;9.30;4.83;;;10.60;87.90;;;;;;5072704;28;20163;-88
2021/08/24 03:23:52;;;;;;;5.90;5.30;;;10.60;88.30;;;;;;5054585;28;20230;-88
2021/08/24 03:26:27;;;;;;;11.47;6.67;;;10.60;88.60;;;;;;5054713;28;20179;-88
2021/08/24 03:28:52;;;;;;;11.37;7.47;;;10.50;88.90;;;;;;5054711;28;20617;-88
2021/08/24 03:31:20;;;;;;;10.20;7.93;;;10.50;89.10;;;;;;5054651;28;20175;-88
2021/08/24 03:33:46;;;;;;;9.37;8.07;;;10.50;89.30;;;;;;5054558;28;20655;-88
2021/08/24 03:36:13;;;;;;;9.13;8.23;;;10.50;89.30;;;;;;5075878;28;20171;-88
2021/08/24 03:38:39;;;;;;;11.30;9.10;;;10.40;89.40;;;;;;5058087;28;20736;-88
2021/08/24 03:41:06;;;;;;;11.90;10.17;;;10.40;89.50;;;;;;5076292;28;20175;-88
2021/08/24 03:43:32;;;;;;;19.57;10.90;;;10.30;89.70;;;;;;5058028;28;20187;-88
2021/08/24 03:45:58;;;;;;;16.57;11.90;;;10.30;89.60;;;;;;5058197;28;20174;-88
2021/08/24 03:48:23;;;;;;;15.17;10.87;;;10.30;89.70;;;;;;5058347;28;20175;-88
2021/08/24 03:50:49;;;;;;;12.57;9.97;;;10.30;89.80;;;;;;5075912;28;20171;-88
2021/08/24 03:53:15;;;;;;;15.97;10.57;;;10.40;89.90;;;;;;5057829;28;20202;-88
2021/08/24 03:55:41;;;;;;;12.80;9.17;;;10.40;90.00;;;;;;5057931;28;20175;-88
2021/08/24 03:58:08;;;;;;;12.70;7.93;;;10.40;89.90;;;;;;5057641;28;20205;-88
2021/08/24 04:00:34;;;;;;;9.33;7.43;;;10.40;89.80;;;;;;5075621;28;20255;-88
2021/08/24 04:03:00;;;;;;;9.50;6.80;;;10.40;89.80;;;;;;5075529;28;20647;-88
2021/08/24 04:05:25;;;;;;;7.80;6.70;;;10.40;89.70;;;;;;5057989;28;20266;-88
2021/08/24 04:07:52;;;;;;;10.33;6.97;;;10.40;89.60;;;;;;5058411;28;20692;-88
2021/08/24 04:10:19;;;;;;;7.03;6.30;;;10.30;89.40;;;;;;5057593;28;20202;-88
2021/08/24 04:12:44;;;;;;;7.63;6.93;;;10.30;89.10;;;;;;5057528;28;20195;-88
2021/08/24 04:15:10;;;;;;;11.57;6.63;;;10.30;88.80;;;;;;5057534;28;20254;-88
2021/08/24 04:17:38;;;;;;;8.43;6.80;;;10.30;88.40;;;;;;5057853;28;20635;-88
2021/08/24 04:20:07;;;;;;;8.67;6.37;;;10.30;88.00;;;;;;5057727;28;20259;-88
2021/08/24 04:22:34;;;;;;;10.00;6.23;;;10.30;87.80;;;;;;5057159;28;20176;-88
2021/08/24 04:24:59;;;;;;;10.20;6.83;;;10.30;87.40;;;;;;5057352;28;20171;-88
2021/08/24 04:27:25;;;;;;;6.47;5.83;;;10.30;87.10;;;;;;5058357;28;20174;-88
2021/08/24 04:29:51;;;;;;;10.93;5.30;;;10.30;86.80;;;;;;5057219;28;20182;-88
2021/08/24 04:32:30;;;;;;;7.50;5.37;;;10.30;86.50;;;;;;5057110;28;20175;-88
2021/08/24 04:34:56;;;;;;;8.80;5.90;;;10.30;86.20;;;;;;5057163;28;20183;-88
2021/08/24 04:37:23;;;;;;;6.97;6.00;;;10.30;86.00;;;;;;5057311;28;20270;-88
2021/08/24 04:39:49;;;;;;;10.87;6.07;;;10.30;85.80;;;;;;5074892;28;20252;-88
2021/08/24 04:42:15;;;;;;;12.63;7.30;;;10.30;85.50;;;;;;5074898;28;20167;-88
2021/08/24 04:44:41;;;;;;;7.77;5.97;;;10.30;85.60;;;;;;5057688;28;20248;-88
2021/08/24 04:47:07;;;;;;;8.17;6.47;;;10.30;85.70;;;;;;5074181;28;20638;-88
2021/08/24 04:49:33;;;;;;;8.77;7.13;;;10.30;85.60;;;;;;5074709;28;20171;-88
2021/08/24 04:51:59;;;;;;;8.83;7.27;;;10.40;85.40;;;;;;5074963;28;20183;-88
2021/08/24 04:54:24;;;;;;;12.27;6.83;;;10.40;85.20;;;;;;5074558;28;20191;-88
2021/08/24 04:56:51;;;;;;;7.93;6.77;;;10.50;85.10;;;;;;5074775;28;20199;-88
2021/08/24 04:59:17;;;;;;;11.37;7.10;;;10.50;85.00;;;;;;5056570;28;20276;-88
2021/08/24 05:01:42;;;;;;;8.50;7.30;;;10.60;85.00;;;;;;5057463;28;20180;-88
2021/08/24 05:04:08;;;;;;;12.03;7.60;;;10.70;85.30;;;;;;5074447;28;20199;-88
2021/08/24 05:06:34;;;;;;;11.20;8.03;;;10.70;85.70;;;;;;5074905;28;20657;-88
2021/08/24 05:09:00;;;;;;;12.73;7.50;;;10.70;86.00;;;;;;5074630;28;20202;-88
2021/08/24 05:11:26;;;;;;;10.10;7.30;;;10.70;86.30;;;;;;5056442;28;20175;-88
2021/08/24 05:13:52;;;;;;;10.47;7.47;;;10.80;86.10;;;;;;5074192;28;20620;-88
2021/08/24 05:16:17;;;;;;;8.47;7.57;;;10.80;86.00;;;;;;5056287;28;20186;-88
2021/08/24 05:18:43;;;;;;;12.53;7.57;;;10.80;85.90;;;;;;5056072;28;20207;-88
2021/08/24 05:21:13;;;;;;;9.57;7.90;;;10.80;85.90;;;;;;5056258;28;20215;-88
2021/08/24 05:23:40;;;;;;;9.03;7.13;;;10.80;85.90;;;;;;5055910;28;20245;-88
2021/08/24 05:26:11;;;;;;;10.80;8.53;;;10.80;85.90;;;;;;5056381;28;20180;-88
2021/08/24 05:28:37;;;;;;;14.63;9.40;;;10.90;86.00;;;;;;5074038;28;20176;-88
2021/08/24 05:31:03;;;;;;;11.67;7.10;;;10.90;86.20;;;;;;5056105;28;20183;-88
2021/08/24 05:33:29;;;;;;;12.00;9.03;;;10.90;86.20;;;;;;5056267;28;20208;-89
2021/08/24 05:35:55;;;;;;;12.23;10.03;;;10.90;86.20;;;;;;5055877;28;20556;-88
2021/08/24 05:38:20;;;;;;;14.93;10.63;;;11.00;86.60;;;;;;5055908;28;20199;-88
2021/08/24 05:40:46;;;;;;;17.80;10.10;;;11.10;87.10;;;;;;5055927;28;20182;-88
2021/08/24 05:43:11;;;;;;;13.90;9.40;;;11.20;87.30;;;;;;5055765;28;20198;-88
2021/08/24 05:45:37;;;;;;;14.97;9.90;;;11.20;87.50;;;;;;5055859;28;20194;-89
2021/08/24 05:48:03;;;;;;;12.20;10.87;;;11.20;87.60;;;;;;5055867;28;20273;-89
2021/08/24 05:50:29;;;;;;;12.73;10.93;;;11.30;87.90;;;;;;5055628;28;20217;-89
2021/08/24 05:52:54;;;;;;;18.07;10.33;;;11.40;88.40;;;;;;5055660;28;20221;-89
2021/08/24 05:55:20;;;;;;;11.90;9.47;;;11.50;88.40;;;;;;5055718;28;20183;-89
2021/08/24 05:57:46;;;;;;;13.57;11.53;;;11.50;88.60;;;;;;5055070;28;20179;-88
2021/08/24 06:00:12;;;;;;;15.67;13.03;;;11.60;89.20;;;;;;5055945;28;20259;-88
2021/08/24 06:02:38;;;;;;;19.70;12.53;;;11.90;90.50;;;;;;5055432;28;20256;-88
2021/08/24 06:05:06;;;;;;;16.13;13.40;;;12.10;90.80;;;;;;5073459;28;20171;-88
2021/08/24 06:07:32;;;;;;;15.23;12.90;;;12.30;91.10;;;;;;5055729;28;20193;-88
2021/08/24 06:09:58;;;;;;;18.23;11.30;;;12.30;91.10;;;;;;5055422;28;20197;-88
2021/08/24 06:12:25;;;;;;;12.97;11.60;;;12.50;91.20;;;;;;5055385;28;20324;-89
2021/08/24 06:14:51;;;;;;;15.40;11.73;;;12.50;91.10;;;;;;5055448;28;20309;-88
2021/08/24 06:17:17;;;;;;;13.90;11.50;;;12.50;91.20;;;;;;5055364;28;20176;-88
2021/08/24 06:19:42;;;;;;;14.07;11.53;;;12.50;91.10;;;;;;5073106;28;20218;-89
2021/08/24 06:22:08;;;;;;;21.20;11.70;;;12.60;91.10;;;;;;5073278;28;20195;-88
2021/08/24 06:24:36;;;;;;;13.03;11.60;;;12.70;91.40;;;;;;5055124;28;20328;-89
2021/08/24 06:27:02;;;;;;;12.60;11.30;;;12.80;91.40;;;;;;5073169;28;20578;-88
2021/08/24 06:29:28;;;;;;;12.73;11.17;;;12.80;91.40;;;;;;5055194;28;20262;-88
2021/08/24 06:31:55;;;;;;;16.60;11.37;;;13.00;91.40;;;;;;5055217;28;20274;-89
2021/08/24 06:34:22;;;;;;;14.50;11.03;;;13.10;91.40;;;;;;5073424;28;20271;-89
2021/08/24 06:36:49;;;;;;;18.10;10.77;;;13.20;91.50;;;;;;5055205;28;20171;-89
2021/08/24 06:39:15;;;;;;;15.00;10.53;;;13.30;91.40;;;;;;5055090;28;20260;-89
2021/08/24 06:41:41;;;;;;;11.37;10.10;;;13.40;91.30;;;;;;5054992;28;20546;-89
2021/08/24 06:44:09;;;;;;;11.67;9.57;;;13.50;91.30;;;;;;5072991;28;20192;-89
2021/08/24 06:46:35;;;;;;;15.47;9.67;;;13.70;91.10;;;;;;5073044;28;20191;-89
2021/08/24 06:49:00;;;;;;;14.17;10.37;;;13.80;90.90;;;;;;5073288;28;20170;-88
2021/08/24 06:51:26;;;;;;;10.70;9.50;;;13.80;91.00;;;;;;5055050;28;20244;-89
2021/08/24 06:53:52;;;;;;;11.03;8.97;;;14.00;91.00;;;;;;5054959;28;20210;-87
2021/08/24 06:56:18;;;;;;;11.00;9.00;;;14.10;91.00;;;;;;5055813;28;20185;-88
2021/08/24 06:58:44;;;;;;;9.53;8.50;;;14.20;90.60;;;;;;5073045;28;20195;-88
2021/08/24 07:01:15;;;;;;;9.20;7.90;;;14.30;90.10;;;;;;5072780;28;20172;-88
2021/08/24 07:03:40;;;;;;;11.20;8.27;;;14.30;89.50;;;;;;5072739;28;20226;-88
2021/08/24 07:06:06;;;;;;;9.83;8.17;;;14.50;89.40;;;;;;5054915;28;20578;-89
2021/08/24 07:08:32;;;;;;;13.23;8.97;;;14.60;89.60;;;;;;5054872;28;20175;-89
2021/08/24 07:10:57;;;;;;;11.00;8.17;;;14.70;88.90;;;;;;5057763;28;20175;-88
2021/08/24 07:13:23;;;;;;;10.90;8.10;;;14.80;88.90;;;;;;5076688;28;20191;-88
2021/08/24 07:15:48;;;;;;;9.00;6.83;;;14.80;88.60;;;;;;5058432;28;20598;-88
2021/08/24 07:18:14;;;;;;;9.37;7.00;;;15.10;88.70;;;;;;5059172;28;20239;-87
2021/08/24 07:20:40;;;;;;;8.03;6.83;;;15.10;88.10;;;;;;5058506;28;20182;-87
2021/08/24 07:23:06;;;;;;;9.70;6.93;;;15.30;87.80;;;;;;5076092;28;20199;-87
2021/08/24 07:25:37;;;;;;;8.80;6.87;;;15.30;87.10;;;;;;5058346;28;20178;-87
2021/08/24 07:28:08;;;;;;;9.50;6.65;;;15.40;87.00;;;;;;5076540;28;20154;-87
2021/08/24 07:30:35;;;;;;;10.30;6.45;;;15.50;86.80;;;;;;5058339;28;20159;-87
2021/08/24 07:33:00;;;;;;;6.67;5.27;;;15.70;85.60;;;;;;5058188;28;20191;-87
2021/08/24 07:35:26;;;;;;;8.90;5.35;;;15.80;85.20;;;;;;5076095;28;20599;-88
2021/08/24 07:37:51;;;;;;;10.45;5.82;;;16.00;85.10;;;;;;5058053;28;20171;-87
2021/08/24 07:40:17;;;;;;;7.35;4.53;;;16.10;85.40;;;;;;5058108;28;20178;-88
2021/08/24 07:42:45;;;;;;;6.78;3.67;;;16.20;83.70;;;;;;5075951;28;20233;-88
2021/08/24 07:45:12;;;;;;;4.78;3.70;;;16.30;82.60;;;;;;5058052;28;20171;-88
2021/08/24 07:47:37;;;;;;;5.15;3.88;;;16.40;81.50;;;;;;5057999;28;20175;-88
2021/08/24 07:50:04;;;;;;;5.28;3.60;;;16.50;82.20;;;;;;5057923;28;20309;-88
2021/08/24 07:52:30;;;;;;;7.47;3.10;;;16.70;81.60;;;;;;5057764;28;20262;-88
2021/08/24 07:54:55;;;;;;;7.10;2.75;;;16.80;81.00;;;;;;5057964;28;20696;-88
2021/08/24 07:57:21;;;;;;;5.35;2.80;;;16.90;79.60;;;;;;5057811;28;20175;-88
2021/08/24 07:59:48;;;;;;;5.00;3.42;;;17.00;79.10;;;;;;5075980;28;20195;-88
2021/08/24 08:02:16;;;;;;;4.53;2.75;;;17.10;79.30;;;;;;5057672;28;20226;-88
2021/08/24 08:04:42;;;;;;;3.72;2.45;;;17.10;78.00;;;;;;5057702;28;20262;-88
2021/08/24 08:07:09;;;;;;;6.05;2.83;;;17.30;79.40;;;;;;5075496;28;20163;-88
2021/08/24 08:09:34;;;;;;;8.52;2.63;;;17.20;76.40;;;;;;5059445;28;20179;-86
2021/08/24 08:12:00;;;;;;;6.35;2.63;;;17.30;77.60;;;;;;5057684;28;20643;-86
2021/08/24 08:14:26;;;;;;;4.13;2.70;;;17.30;75.60;;;;;;5075459;28;20191;-86
2021/08/24 08:16:51;;;;;;;4.57;2.85;;;17.30;77.80;;;;;;5075390;28;20172;-86
2021/08/24 08:19:17;;;;;;;5.72;2.60;;;17.50;75.90;;;;;;5057252;28;20268;-86
2021/08/24 08:21:42;;;;;;;3.25;2.45;;;17.50;74.90;;;;;;5056482;28;20198;-86
2021/08/24 08:24:09;;;;;;;7.97;2.67;;;17.50;75.40;;;;;;5057086;28;20210;-86
2021/08/24 08:26:37;;;;;;;3.70;2.85;;;17.60;74.90;;;;;;5075227;28;20611;-86
2021/08/24 08:29:05;;;;;;;3.72;2.60;;;17.70;76.80;;;;;;5075413;28;20247;-86
2021/08/24 08:31:33;;;;;;;4.05;2.58;;;17.80;72.60;;;;;;5057217;28;20186;-86
2021/08/24 08:33:59;;;;;;;5.03;2.78;;;17.90;71.60;;;;;;5057239;28;20249;-86
2021/08/24 08:36:26;;;;;;;3.88;3.10;;;18.00;72.00;;;;;;5057393;28;20175;-86
2021/08/24 08:38:52;;;;;;;2.80;2.30;;;18.10;71.20;;;;;;5075384;28;20229;-86
2021/08/24 08:41:26;;;;;;;3.95;3.00;;;18.20;69.40;;;;;;5057227;28;20270;-86
2021/08/24 08:44:02;;;;;;;5.38;3.10;;;18.30;69.10;;;;;;5074811;28;20182;-86
2021/08/24 08:46:37;;;;;;;5.10;3.20;;;18.30;67.70;;;;;;5074948;28;20678;-87
2021/08/24 08:49:23;;;;;;;7.07;2.97;;;18.30;68.00;;;;;;5057015;28;20178;-86
2021/08/24 08:52:11;;;;;;;3.50;2.85;;;18.50;66.40;;;;;;5056884;28;20213;-86
2021/08/24 08:54:58;;;;;;;6.63;4.03;;;18.60;65.00;;;;;;5074541;28;20199;-86
2021/08/24 08:57:39;;;;;;;5.40;3.30;;;18.70;67.40;;;;;;5056701;28;20199;-86
2021/08/24 09:00:07;;;;;;;10.55;3.42;;;18.90;64.20;;;;;;5074778;28;20594;-86
2021/08/24 09:02:41;;;;;;;6.10;3.10;;;19.00;60.70;;;;;;5056566;28;20218;-86
2021/08/24 09:05:08;;;;;;;5.10;3.20;;;19.20;62.90;;;;;;5074765;28;20155;-86
2021/08/24 09:07:57;;;;;;;4.38;2.95;;;19.20;61.70;;;;;;5074355;28;20224;-86
2021/08/24 09:10:52;;;;;;;4.95;3.00;;;19.30;61.60;;;;;;5061849;28;20262;-87
2021/08/24 09:13:39;;;;;;;5.43;3.10;;;19.40;60.70;;;;;;5053561;28;20203;-86
2021/08/24 09:16:21;;;;;;;4.28;2.88;;;19.50;61.80;;;;;;5056487;28;20716;-86
2021/08/24 09:18:53;;;;;;;5.45;2.72;;;19.50;61.30;;;;;;5074217;28;20187;-86
2021/08/24 09:21:35;;;;;;;7.57;3.10;;;19.70;62.70;;;;;;5074199;28;20148;-86
2021/08/24 09:24:07;;;;;;;7.68;3.28;;;19.60;59.10;;;;;;5074401;28;20268;-86
2021/08/24 09:26:55;;;;;;;5.45;3.45;;;19.60;61.00;;;;;;5074106;28;20647;-86
2021/08/24 09:29:25;;;;;;;3.65;2.97;;;19.70;60.80;;;;;;5074459;28;20575;-86
2021/08/24 09:31:52;;;;;;;4.20;2.72;;;19.80;61.20;;;;;;5074181;28;20155;-86
2021/08/24 09:34:28;;;;;;;5.93;3.10;;;19.90;60.60;;;;;;5055877;28;20572;-86
2021/08/24 09:36:54;;;;;;;4.97;3.38;;;19.90;62.40;;;;;;5073938;28;20166;-86
2021/08/24 09:39:52;;;;;;;5.97;2.85;;;20.00;63.10;;;;;;5055914;28;20203;-86
2021/08/24 09:42:34;;;;;;;7.40;3.10;;;20.00;61.40;;;;;;5073628;28;20163;-86
2021/08/24 09:45:24;;;;;;;4.25;3.20;;;20.10;60.70;;;;;;5055874;28;20156;-86
2021/08/24 09:47:55;;;;;;;6.63;3.30;;;20.20;60.40;;;;;;5073938;28;20156;-86
2021/08/24 09:50:24;;;;;;;3.95;3.00;;;20.30;57.20;;;;;;5073878;28;20178;-86
2021/08/24 09:52:52;;;;;;;4.28;2.80;;;20.20;58.10;;;;;;5055934;28;20279;-86
2021/08/24 09:55:23;;;;;;;4.18;2.72;;;20.30;60.20;;;;;;5055841;28;20171;-86
2021/08/24 09:57:54;;;;;;;6.07;2.72;;;20.40;60.20;;;;;;5073782;28;20610;-86
2021/08/24 10:00:36;;;;;;;5.75;2.75;;;20.50;57.50;;;;;;5056391;28;20163;-86
2021/08/24 10:03:18;;;;;;;4.88;3.20;;;20.20;58.30;;;;;;5055688;28;20198;-86
2021/08/24 10:05:43;;;;;;;4.80;2.70;;;20.10;59.10;;;;;;5055934;28;20163;-86
2021/08/24 10:08:30;;;;;;;3.47;2.60;;;19.90;57.00;;;;;;5055705;28;20186;-86
2021/08/24 10:11:06;;;;;;;4.45;2.53;;;20.00;60.20;;;;;;5073810;28;20622;-85
2021/08/24 10:13:37;;;;;;;6.25;3.25;;;20.20;60.30;;;;;;5055976;28;20228;-86
2021/08/24 10:16:10;;;;;;;3.63;2.60;;;20.20;58.90;;;;;;5055840;28;20168;-85
2021/08/24 10:18:36;;;;;;;4.20;2.55;;;20.20;56.90;;;;;;5073714;28;20191;-86
2021/08/24 10:21:28;;;;;;;6.15;3.17;;;20.30;56.40;;;;;;5073897;28;20168;-86
2021/08/24 10:23:59;;;;;;;7.00;2.88;;;20.50;57.80;;;;;;5069338;28;20245;-86
2021/08/24 10:26:33;;;;;;;5.90;3.13;;;20.70;55.40;;;;;;5055431;28;20175;-87
2021/08/24 10:29:04;;;;;;;5.22;2.78;;;20.70;59.00;;;;;;5055597;28;20247;-86
2021/08/24 10:31:52;;;;;;;5.22;2.70;;;20.70;57.50;;;;;;5073484;28;20163;-87
2021/08/24 10:34:39;;;;;;;3.38;2.50;;;20.70;55.80;;;;;;5055551;28;20195;-85
2021/08/24 10:37:23;;;;;;;3.83;3.05;;;20.60;56.60;;;;;;5073710;28;20172;-85
2021/08/24 10:39:52;;;;;;;3.08;2.50;;;20.60;55.90;;;;;;5055928;28;20238;-85
2021/08/24 10:42:20;;;;;;;4.10;2.38;;;20.70;54.40;;;;;;5055592;28;20171;-85
2021/08/24 10:44:53;;;;;;;3.28;2.80;;;20.60;56.40;;;;;;5074465;28;20660;-85
2021/08/24 10:47:33;;;;;;;4.95;2.58;;;20.60;56.20;;;;;;5077913;28;20171;-85
2021/08/24 10:50:00;;;;;;;4.32;2.97;;;20.50;55.30;;;;;;5059845;28;20310;-86
2021/08/24 10:52:38;;;;;;;7.18;2.80;;;20.30;57.40;;;;;;5077607;28;20171;-85
2021/08/24 10:55:15;;;;;;;5.07;3.00;;;20.20;57.60;;;;;;5077925;28;20160;-85
2021/08/24 10:58:06;;;;;;;5.85;3.42;;;20.20;56.60;;;;;;5077709;28;20170;-85
2021/08/24 11:00:49;;;;;;;3.08;2.50;;;20.20;55.00;;;;;;5077604;28;20225;-85
2021/08/24 11:03:57;;;;;;;3.90;2.80;;;20.20;56.50;;;;;;5059684;28;20203;-85
2021/08/24 11:06:45;;;;;;;3.78;2.80;;;20.20;57.50;;;;;;5076897;28;20185;-85
2021/08/24 11:09:45;;;;;;;4.68;3.67;;;20.00;59.00;;;;;;5022776;28;20274;-84
2021/08/24 11:12:30;;;;;;;4.00;2.88;;;20.30;53.60;;;;;;5060469;28;20174;-84
2021/08/24 11:15:32;;;;;;;4.75;2.58;;;20.50;56.40;;;;;;5059987;28;20643;-85
2021/08/24 11:18:02;;;;;;;3.47;2.80;;;20.90;57.40;;;;;;5077120;28;20167;-85
2021/08/24 11:20:31;;;;;;;5.55;2.88;;;21.00;53.40;;;;;;5059247;28;20230;-84
2021/08/24 11:23:24;;;;;;;3.30;2.50;;;21.10;53.10;;;;;;5076530;28;20290;-85
2021/08/24 11:25:54;;;;;;;4.20;2.85;;;20.80;53.80;;;;;;5058942;28;20164;-85
2021/08/24 11:28:55;;;;;;;6.07;3.10;;;20.70;53.90;;;;;;5077087;28;20197;-85
2021/08/24 11:31:27;;;;;;;4.45;2.92;;;21.00;56.80;;;;;;5055553;28;20191;-85
2021/08/24 11:34:04;;;;;;;3.58;2.45;;;21.20;54.90;;;;;;5076703;28;20191;-85
2021/08/24 11:36:39;;;;;;;4.93;2.80;;;21.20;51.00;;;;;;5076903;28;20218;-85
2021/08/24 11:39:24;;;;;;;3.97;2.90;;;21.30;53.00;;;;;;5058781;28;20187;-85
2021/08/24 11:41:58;;;;;;;6.05;2.67;;;21.50;55.00;;;;;;5076662;28;20242;-85
2021/08/24 11:44:30;;;;;;;8.27;3.17;;;21.70;52.90;;;;;;5076779;28;20192;-85
2021/08/24 11:47:09;;;;;;;6.28;2.75;;;21.80;51.50;;;;;;5059101;28;20160;-85
2021/08/24 11:49:47;;;;;;;3.53;2.53;;;21.90;50.90;;;;;;5058633;28;20580;-85
2021/08/24 11:52:31;;;;;;;5.22;2.47;;;21.80;51.60;;;;;;5076696;28;20159;-85
2021/08/24 11:55:27;;;;;;;4.82;2.72;;;21.80;51.50;;;;;;5076522;28;20178;-85
2021/08/24 11:58:20;;;;;;;5.65;3.33;;;22.00;51.00;;;;;;5076911;28;20539;-83
2021/08/24 12:00:54;;;;;;;3.97;2.90;;;22.00;50.20;;;;;;5058766;28;20202;-83
2021/08/24 12:03:21;;;;;;;4.07;3.00;;;21.70;48.80;;;;;;5076382;28;20217;-83
2021/08/24 12:06:06;;;;;;;4.55;2.75;;;21.80;50.40;;;;;;5076501;28;20705;-83
2021/08/24 12:08:40;;;;;;;3.78;3.10;;;21.90;50.70;;;;;;5058134;28;20213;-83
2021/08/24 12:11:10;;;;;;;4.70;2.90;;;21.30;51.50;;;;;;5058434;28;20166;-83
2021/08/24 12:13:40;;;;;;;4.63;3.13;;;20.90;52.90;;;;;;5058359;28;20211;-82
2021/08/24 12:16:21;;;;;;;3.72;2.47;;;20.80;53.70;;;;;;5075952;28;20171;-82
2021/08/24 12:18:52;;;;;;;3.85;2.83;;;21.20;54.50;;;;;;5075984;28;20284;-83
2021/08/24 12:21:31;;;;;;;3.90;3.10;;;21.30;51.40;;;;;;5058160;28;20178;-83
2021/08/24 12:23:58;;;;;;;3.70;2.88;;;21.50;51.30;;;;;;5075996;28;20210;-83
2021/08/24 12:26:33;;;;;;;4.95;2.88;;;21.70;51.00;;;;;;5057605;28;20174;-83
2021/08/24 12:29:10;;;;;;;3.80;2.95;;;21.70;50.50;;;;;;5057959;28;20665;-83
2021/08/24 12:31:42;;;;;;;6.03;2.80;;;21.80;51.80;;;;;;5075911;28;20254;-83
2021/08/24 12:34:32;;;;;;;4.35;3.03;;;22.10;51.10;;;;;;5057896;28;20202;-83
2021/08/24 12:37:18;;;;;;;4.82;3.30;;;22.20;48.30;;;;;;5057603;28;20172;-83
2021/08/24 12:39:44;;;;;;;4.20;3.13;;;22.20;51.20;;;;;;5017552;28;20211;-82
2021/08/24 12:42:31;;;;;;;5.07;2.85;;;22.30;47.90;;;;;;5057905;28;20553;-83
2021/08/24 12:44:59;;;;;;;4.93;3.30;;;22.30;49.70;;;;;;5075528;28;20643;-83
2021/08/24 12:47:35;;;;;;;4.63;2.97;;;22.30;51.00;;;;;;5057593;28;20241;-83
2021/08/24 12:50:09;;;;;;;5.35;3.00;;;22.30;51.10;;;;;;5075936;28;20148;-83
2021/08/24 12:52:40;;;;;;;4.40;3.13;;;22.30;49.20;;;;;;5075432;28;20167;-83
2021/08/24 12:55:12;;;;;;;6.85;3.08;;;22.40;50.40;;;;;;5057486;28;20176;-83
2021/08/24 12:57:46;;;;;;;5.35;2.78;;;22.30;49.80;;;;;;5057206;28;20197;-83
2021/08/24 13:00:21;;;;;;;6.40;2.90;;;21.90;50.30;;;;;;5057207;28;20213;-83
2021/08/24 13:02:57;;;;;;;4.07;3.10;;;21.70;50.80;;;;;;5057638;28;20222;-83
2021/08/24 13:05:35;;;;;;;4.00;2.72;;;21.40;50.60;;;;;;5057067;28;20179;-83
2021/08/24 13:08:20;;;;;;;6.35;3.15;;;21.60;50.30;;;;;;5074305;28;20195;-83